EJU57LC LIMC-HEMA
Flight info
| Callsign | EJU57LC |
|---|---|
| Flight time | N/A |
| Altitude | 35000 |
| Route | ROBAS DCT EKDIR DCT LATAN UM872 ETILI DCT SALUN N705 MMA/N0454F370 N705 BOPIX N710 TAKRI P751 LXR M999 ELELI V730 MAK |
| Aircraft | A320/M-SDE3FGHIRWY/LB1 |
Departure
| Time | N/A |
|---|---|
| Airport | Milan Malpensa International Airport (LIMC) |
Arrival
| Time | 2026-04-16 15:03 |
|---|---|
| Airport | Marsa Alam International Airport (HEMA) |
| Time | Latitude | Longitude | Altitude | Speed | Heading |
|---|---|---|---|---|---|
| 2026-04-16 10:57 | 45.42959 | 9.36090 | 16915 ft | 393 kts | 131° |
| 2026-04-16 10:58 | 45.41112 | 9.38973 | 17395 ft | 397 kts | 131° |
| 2026-04-16 10:58 | 45.39874 | 9.40898 | 17720 ft | 399 kts | 131° |
| 2026-04-16 10:58 | 45.37349 | 9.44816 | 18368 ft | 404 kts | 131° |
| 2026-04-16 10:58 | 45.35447 | 9.47765 | 18791 ft | 407 kts | 131° |
| 2026-04-16 10:59 | 45.33527 | 9.50736 | 19211 ft | 409 kts | 131° |
| 2026-04-16 10:59 | 45.31593 | 9.53733 | 19628 ft | 412 kts | 131° |
| 2026-04-16 10:59 | 45.29652 | 9.56738 | 20041 ft | 415 kts | 131° |
| 2026-04-16 10:59 | 45.27689 | 9.59768 | 20460 ft | 418 kts | 131° |
| 2026-04-16 11:00 | 45.25713 | 9.62810 | 20864 ft | 420 kts | 131° |
| 2026-04-16 11:00 | 45.23728 | 9.65865 | 21264 ft | 423 kts | 131° |
| 2026-04-16 11:00 | 45.21724 | 9.68949 | 21662 ft | 426 kts | 131° |
| 2026-04-16 11:00 | 45.19682 | 9.71995 | 22065 ft | 428 kts | 136° |
| 2026-04-16 11:01 | 45.17354 | 9.74664 | 22442 ft | 432 kts | 143° |
| 2026-04-16 11:01 | 45.14940 | 9.77113 | 22813 ft | 434 kts | 143° |
| 2026-04-16 11:01 | 45.12477 | 9.79610 | 23198 ft | 436 kts | 143° |
| 2026-04-16 11:01 | 45.10002 | 9.82117 | 23584 ft | 439 kts | 143° |
| 2026-04-16 11:02 | 45.07509 | 9.84637 | 23913 ft | 441 kts | 143° |
| 2026-04-16 11:02 | 45.05006 | 9.87161 | 24229 ft | 443 kts | 144° |
| 2026-04-16 11:02 | 45.03340 | 9.88841 | 24439 ft | 444 kts | 144° |
| 2026-04-16 11:02 | 44.99965 | 9.92240 | 24861 ft | 447 kts | 144° |
| 2026-04-16 11:03 | 44.97431 | 9.94787 | 25172 ft | 448 kts | 144° |
| 2026-04-16 11:03 | 44.94885 | 9.97345 | 25495 ft | 450 kts | 144° |
| 2026-04-16 11:03 | 44.89772 | 10.02480 | 26121 ft | 452 kts | 144° |
| 2026-04-16 11:04 | 44.87207 | 10.05051 | 26419 ft | 454 kts | 144° |
| 2026-04-16 11:04 | 44.84627 | 10.07637 | 26713 ft | 456 kts | 144° |
| 2026-04-16 11:04 | 44.82912 | 10.09354 | 26914 ft | 457 kts | 144° |
| 2026-04-16 11:04 | 44.79439 | 10.12827 | 27296 ft | 459 kts | 144° |
| 2026-04-16 11:05 | 44.76833 | 10.15432 | 27572 ft | 461 kts | 144° |
| 2026-04-16 11:05 | 44.74215 | 10.18049 | 27839 ft | 462 kts | 144° |
| 2026-04-16 11:05 | 44.71620 | 10.20637 | 28097 ft | 464 kts | 144° |
| 2026-04-16 11:05 | 44.69840 | 10.22408 | 28273 ft | 465 kts | 144° |
| 2026-04-16 11:06 | 44.66331 | 10.25890 | 28619 ft | 467 kts | 144° |
| 2026-04-16 11:06 | 44.64538 | 10.27669 | 28806 ft | 468 kts | 144° |
| 2026-04-16 11:06 | 44.61011 | 10.31162 | 29150 ft | 470 kts | 144° |
| 2026-04-16 11:06 | 44.58340 | 10.33805 | 29426 ft | 471 kts | 144° |
| 2026-04-16 11:07 | 44.55656 | 10.36459 | 29659 ft | 473 kts | 144° |
| 2026-04-16 11:07 | 44.52967 | 10.39116 | 29910 ft | 474 kts | 144° |
| 2026-04-16 11:07 | 44.50273 | 10.41782 | 30255 ft | 473 kts | 144° |
| 2026-04-16 11:07 | 44.47589 | 10.44434 | 30550 ft | 472 kts | 144° |
| 2026-04-16 11:08 | 44.44909 | 10.47076 | 30835 ft | 471 kts | 144° |
| 2026-04-16 11:08 | 44.42230 | 10.49715 | 31112 ft | 470 kts | 144° |
| 2026-04-16 11:08 | 44.39554 | 10.52345 | 31381 ft | 470 kts | 144° |
| 2026-04-16 11:08 | 44.36879 | 10.54969 | 31657 ft | 469 kts | 144° |
| 2026-04-16 11:09 | 44.34213 | 10.57582 | 31968 ft | 468 kts | 144° |
| 2026-04-16 11:09 | 44.31550 | 10.60190 | 32260 ft | 467 kts | 144° |
| 2026-04-16 11:09 | 44.28892 | 10.62790 | 32538 ft | 466 kts | 144° |
| 2026-04-16 11:09 | 44.26238 | 10.65382 | 32822 ft | 465 kts | 144° |
| 2026-04-16 11:10 | 44.23587 | 10.67970 | 33079 ft | 465 kts | 144° |
| 2026-04-16 11:10 | 44.21079 | 10.70794 | 33364 ft | 463 kts | 135° |
| 2026-04-16 11:10 | 44.19602 | 10.72922 | 33543 ft | 462 kts | 130° |
| 2026-04-16 11:10 | 44.17026 | 10.77693 | 33880 ft | 461 kts | 124° |
| 2026-04-16 11:11 | 44.15164 | 10.81323 | 34103 ft | 461 kts | 124° |
| 2026-04-16 11:11 | 44.13298 | 10.84947 | 34346 ft | 460 kts | 125° |
| 2026-04-16 11:11 | 44.12061 | 10.87343 | 34481 ft | 460 kts | 125° |
| 2026-04-16 11:12 | 44.03995 | 11.02903 | 35155 ft | 458 kts | 124° |
| 2026-04-16 11:13 | 44.00266 | 11.10054 | 35142 ft | 456 kts | 125° |
| 2026-04-16 11:13 | 43.96541 | 11.17197 | 35123 ft | 457 kts | 124° |
| 2026-04-16 11:14 | 43.92812 | 11.24349 | 35117 ft | 457 kts | 124° |
| 2026-04-16 11:14 | 43.89082 | 11.31478 | 35145 ft | 456 kts | 124° |
| 2026-04-16 11:15 | 43.85345 | 11.38591 | 35139 ft | 457 kts | 124° |
| 2026-04-16 11:15 | 43.81600 | 11.45695 | 35153 ft | 456 kts | 124° |
| 2026-04-16 11:16 | 43.77878 | 11.52741 | 35153 ft | 456 kts | 124° |
| 2026-04-16 11:16 | 43.74112 | 11.59863 | 35153 ft | 455 kts | 124° |
| 2026-04-16 11:17 | 43.70395 | 11.66873 | 35149 ft | 455 kts | 124° |
| 2026-04-16 11:17 | 43.66647 | 11.73919 | 35156 ft | 455 kts | 124° |
| 2026-04-16 11:18 | 43.62906 | 11.80945 | 35158 ft | 454 kts | 124° |
| 2026-04-16 11:18 | 43.59160 | 11.87954 | 35153 ft | 453 kts | 124° |
| 2026-04-16 11:19 | 43.55418 | 11.94940 | 35151 ft | 453 kts | 124° |
| 2026-04-16 11:19 | 43.52305 | 12.00733 | 35150 ft | 452 kts | 124° |
| 2026-04-16 11:20 | 43.48564 | 12.07689 | 35158 ft | 452 kts | 123° |
| 2026-04-16 11:20 | 43.44832 | 12.14628 | 35153 ft | 450 kts | 123° |
| 2026-04-16 11:21 | 43.41103 | 12.21545 | 35144 ft | 449 kts | 123° |
| 2026-04-16 11:21 | 43.37391 | 12.28384 | 35141 ft | 449 kts | 124° |
| 2026-04-16 11:22 | 43.33657 | 12.35257 | 35141 ft | 449 kts | 123° |
| 2026-04-16 11:22 | 43.29926 | 12.42123 | 35147 ft | 448 kts | 123° |
| 2026-04-16 11:23 | 43.26195 | 12.48973 | 35144 ft | 448 kts | 123° |
| 2026-04-16 11:23 | 43.22455 | 12.55801 | 35137 ft | 447 kts | 123° |
| 2026-04-16 11:24 | 43.18722 | 12.62605 | 35131 ft | 446 kts | 123° |
| 2026-04-16 11:24 | 43.15018 | 12.69352 | 35130 ft | 446 kts | 123° |
| 2026-04-16 11:25 | 43.11288 | 12.76146 | 35142 ft | 446 kts | 123° |
| 2026-04-16 11:25 | 43.07552 | 12.82914 | 35150 ft | 446 kts | 123° |
| 2026-04-16 11:26 | 43.03808 | 12.89673 | 35136 ft | 445 kts | 123° |
| 2026-04-16 11:26 | 43.00069 | 12.96420 | 35137 ft | 445 kts | 123° |
| 2026-04-16 11:27 | 42.96359 | 13.03113 | 35139 ft | 445 kts | 123° |
| 2026-04-16 11:27 | 42.92615 | 13.09841 | 35147 ft | 445 kts | 123° |
| 2026-04-16 11:28 | 42.88862 | 13.16559 | 35158 ft | 445 kts | 123° |
| 2026-04-16 11:28 | 42.85108 | 13.23263 | 35174 ft | 445 kts | 124° |
| 2026-04-16 11:29 | 42.81356 | 13.29958 | 35151 ft | 445 kts | 124° |
| 2026-04-16 11:29 | 42.77598 | 13.36650 | 35153 ft | 445 kts | 124° |
| 2026-04-16 11:30 | 42.73839 | 13.43334 | 35153 ft | 445 kts | 124° |
| 2026-04-16 11:30 | 42.70073 | 13.50007 | 35167 ft | 445 kts | 124° |
| 2026-04-16 11:31 | 42.66309 | 13.56668 | 35161 ft | 444 kts | 125° |
| 2026-04-16 11:31 | 42.62546 | 13.63313 | 35156 ft | 443 kts | 125° |
| 2026-04-16 11:32 | 42.58801 | 13.69902 | 35153 ft | 444 kts | 126° |
| 2026-04-16 11:32 | 42.55024 | 13.76517 | 35144 ft | 444 kts | 126° |
| 2026-04-16 11:33 | 42.51250 | 13.83130 | 35145 ft | 444 kts | 126° |
| 2026-04-16 11:33 | 42.47467 | 13.89751 | 35146 ft | 444 kts | 126° |
| 2026-04-16 11:34 | 42.43678 | 13.96378 | 35139 ft | 444 kts | 126° |
| 2026-04-16 11:34 | 42.39884 | 14.02989 | 35142 ft | 445 kts | 126° |
| 2026-04-16 11:35 | 42.36081 | 14.09580 | 35136 ft | 445 kts | 126° |
| 2026-04-16 11:35 | 42.32268 | 14.16179 | 35142 ft | 445 kts | 126° |
| 2026-04-16 11:36 | 42.28459 | 14.22765 | 35151 ft | 445 kts | 127° |
| 2026-04-16 11:36 | 42.24648 | 14.29339 | 35157 ft | 444 kts | 127° |
| 2026-04-16 11:37 | 42.20869 | 14.35852 | 35158 ft | 443 kts | 127° |
| 2026-04-16 11:37 | 42.17066 | 14.42386 | 35155 ft | 443 kts | 127° |
| 2026-04-16 11:38 | 42.13267 | 14.48900 | 35151 ft | 442 kts | 127° |
| 2026-04-16 11:38 | 42.09464 | 14.55405 | 35149 ft | 442 kts | 127° |
| 2026-04-16 11:39 | 42.05660 | 14.61903 | 35146 ft | 442 kts | 127° |
| 2026-04-16 11:39 | 42.01854 | 14.68385 | 35148 ft | 441 kts | 127° |
| 2026-04-16 11:40 | 41.98053 | 14.74854 | 35150 ft | 440 kts | 127° |
| 2026-04-16 11:40 | 41.94273 | 14.81260 | 35137 ft | 440 kts | 127° |
| 2026-04-16 11:41 | 41.90465 | 14.87692 | 35137 ft | 440 kts | 127° |
| 2026-04-16 11:41 | 41.86653 | 14.94121 | 35140 ft | 440 kts | 127° |
| 2026-04-16 11:42 | 41.82843 | 15.00550 | 35141 ft | 440 kts | 127° |
| 2026-04-16 11:42 | 41.79028 | 15.06966 | 35134 ft | 440 kts | 127° |
| 2026-04-16 11:43 | 41.75215 | 15.13379 | 35137 ft | 440 kts | 127° |
| 2026-04-16 11:43 | 41.71424 | 15.19739 | 35135 ft | 440 kts | 127° |
| 2026-04-16 11:44 | 41.67596 | 15.26125 | 35133 ft | 440 kts | 127° |
| 2026-04-16 11:44 | 41.63767 | 15.32495 | 35126 ft | 439 kts | 128° |
| 2026-04-16 11:45 | 41.59938 | 15.38869 | 35118 ft | 440 kts | 128° |
| 2026-04-16 11:45 | 41.56111 | 15.45218 | 35107 ft | 438 kts | 128° |
| 2026-04-16 11:46 | 41.52296 | 15.51534 | 35086 ft | 437 kts | 128° |
| 2026-04-16 11:46 | 41.48475 | 15.57856 | 35080 ft | 438 kts | 128° |
| 2026-04-16 11:47 | 41.44652 | 15.64175 | 35102 ft | 438 kts | 128° |
| 2026-04-16 11:47 | 41.40828 | 15.70475 | 35121 ft | 437 kts | 129° |
| 2026-04-16 11:48 | 41.37000 | 15.76758 | 35104 ft | 437 kts | 129° |
| 2026-04-16 11:48 | 41.33174 | 15.83033 | 35119 ft | 437 kts | 129° |
| 2026-04-16 11:49 | 41.29346 | 15.89298 | 35119 ft | 436 kts | 130° |
| 2026-04-16 11:49 | 41.25525 | 15.95548 | 35114 ft | 436 kts | 130° |
| 2026-04-16 11:50 | 41.21725 | 16.01749 | 35120 ft | 435 kts | 131° |
| 2026-04-16 11:50 | 41.17905 | 16.07953 | 35125 ft | 433 kts | 131° |
| 2026-04-16 11:51 | 41.14101 | 16.14118 | 35131 ft | 431 kts | 131° |
| 2026-04-16 11:51 | 41.10302 | 16.20270 | 35134 ft | 430 kts | 131° |
| 2026-04-16 11:52 | 41.06509 | 16.26386 | 35137 ft | 430 kts | 131° |
| 2026-04-16 11:52 | 41.02722 | 16.32507 | 35141 ft | 429 kts | 131° |
| 2026-04-16 11:53 | 40.98943 | 16.38613 | 35160 ft | 428 kts | 131° |
| 2026-04-16 11:53 | 40.95169 | 16.44677 | 35165 ft | 426 kts | 132° |
| 2026-04-16 11:54 | 40.91409 | 16.50710 | 35160 ft | 425 kts | 132° |
| 2026-04-16 11:54 | 40.87649 | 16.56722 | 35157 ft | 424 kts | 132° |
| 2026-04-16 11:55 | 40.83893 | 16.62712 | 35148 ft | 423 kts | 132° |
| 2026-04-16 11:55 | 40.80135 | 16.68692 | 35121 ft | 423 kts | 132° |
| 2026-04-16 11:56 | 40.76406 | 16.74632 | 35085 ft | 423 kts | 132° |
| 2026-04-16 11:56 | 40.72653 | 16.80599 | 35089 ft | 423 kts | 131° |
| 2026-04-16 11:57 | 40.68895 | 16.86557 | 35092 ft | 422 kts | 131° |
| 2026-04-16 11:57 | 40.65136 | 16.92507 | 35090 ft | 422 kts | 131° |
| 2026-04-16 11:58 | 40.61385 | 16.98444 | 35085 ft | 422 kts | 131° |
| 2026-04-16 11:58 | 40.57621 | 17.04366 | 35080 ft | 422 kts | 131° |
| 2026-04-16 11:59 | 40.53857 | 17.10276 | 35054 ft | 422 kts | 131° |
| 2026-04-16 11:59 | 40.50085 | 17.16193 | 35053 ft | 422 kts | 131° |
| 2026-04-16 12:00 | 40.46306 | 17.22101 | 35050 ft | 423 kts | 131° |
| 2026-04-16 12:00 | 40.42547 | 17.27979 | 35050 ft | 423 kts | 131° |
| 2026-04-16 12:01 | 40.38774 | 17.33893 | 35048 ft | 423 kts | 131° |
| 2026-04-16 12:01 | 40.34993 | 17.39796 | 35046 ft | 423 kts | 131° |
| 2026-04-16 12:02 | 40.29298 | 17.48634 | 35047 ft | 423 kts | 130° |
| 2026-04-16 12:02 | 40.25502 | 17.54517 | 35047 ft | 423 kts | 130° |
| 2026-04-16 12:03 | 40.21701 | 17.60403 | 35046 ft | 423 kts | 131° |
| 2026-04-16 12:03 | 40.17895 | 17.66277 | 35049 ft | 423 kts | 130° |
| 2026-04-16 12:04 | 40.14093 | 17.72142 | 35047 ft | 423 kts | 130° |
| 2026-04-16 12:04 | 40.10288 | 17.78001 | 35045 ft | 423 kts | 130° |
| 2026-04-16 12:05 | 40.06474 | 17.83855 | 35044 ft | 423 kts | 130° |
| 2026-04-16 12:05 | 40.02651 | 17.89702 | 35036 ft | 423 kts | 130° |
| 2026-04-16 12:06 | 39.98834 | 17.95541 | 35039 ft | 423 kts | 130° |
| 2026-04-16 12:06 | 39.95014 | 18.01384 | 35040 ft | 423 kts | 130° |
| 2026-04-16 12:07 | 39.91184 | 18.07217 | 35038 ft | 424 kts | 130° |
| 2026-04-16 12:07 | 39.87349 | 18.13048 | 35036 ft | 424 kts | 130° |
| 2026-04-16 12:08 | 39.83513 | 18.18874 | 35027 ft | 424 kts | 130° |
| 2026-04-16 12:08 | 39.79664 | 18.24700 | 35026 ft | 425 kts | 130° |
| 2026-04-16 12:09 | 39.75837 | 18.30485 | 35027 ft | 425 kts | 130° |
| 2026-04-16 12:09 | 39.71983 | 18.36309 | 35027 ft | 425 kts | 130° |
| 2026-04-16 12:10 | 39.68130 | 18.42134 | 35027 ft | 425 kts | 130° |
| 2026-04-16 12:10 | 39.64259 | 18.47947 | 35006 ft | 427 kts | 130° |
| 2026-04-16 12:11 | 39.60357 | 18.53792 | 35006 ft | 430 kts | 130° |
| 2026-04-16 12:11 | 39.56441 | 18.59667 | 35001 ft | 431 kts | 130° |
| 2026-04-16 12:12 | 39.52515 | 18.65558 | 35005 ft | 432 kts | 130° |
| 2026-04-16 12:12 | 39.48574 | 18.71448 | 35009 ft | 433 kts | 130° |
| 2026-04-16 12:13 | 39.44621 | 18.77325 | 35006 ft | 433 kts | 131° |
| 2026-04-16 12:13 | 39.40666 | 18.83200 | 35023 ft | 432 kts | 131° |
| 2026-04-16 12:14 | 39.36750 | 18.89017 | 35041 ft | 431 kts | 131° |
| 2026-04-16 12:14 | 39.32808 | 18.94853 | 35047 ft | 431 kts | 131° |
| 2026-04-16 12:15 | 39.28861 | 19.00665 | 35033 ft | 430 kts | 133° |
| 2026-04-16 12:15 | 39.24728 | 19.06244 | 35036 ft | 430 kts | 135° |
| 2026-04-16 12:16 | 39.20471 | 19.11650 | 35030 ft | 429 kts | 136° |
| 2026-04-16 12:16 | 39.16240 | 19.17050 | 35050 ft | 427 kts | 135° |
| 2026-04-16 12:17 | 39.12065 | 19.22459 | 35034 ft | 425 kts | 135° |
| 2026-04-16 12:17 | 39.07918 | 19.27858 | 35030 ft | 423 kts | 135° |
| 2026-04-16 12:18 | 39.03780 | 19.33232 | 35024 ft | 422 kts | 135° |
| 2026-04-16 12:18 | 39.00334 | 19.37676 | 35026 ft | 422 kts | 135° |
| 2026-04-16 12:19 | 38.96191 | 19.43000 | 35020 ft | 421 kts | 135° |
| 2026-04-16 12:19 | 38.92051 | 19.48320 | 35017 ft | 420 kts | 135° |
| 2026-04-16 12:20 | 38.87268 | 19.54470 | 35022 ft | 418 kts | 135° |
| 2026-04-16 12:20 | 38.83836 | 19.58882 | 35014 ft | 416 kts | 135° |
| 2026-04-16 12:21 | 38.79745 | 19.64123 | 35013 ft | 415 kts | 135° |
| 2026-04-16 12:21 | 38.75686 | 19.69314 | 35012 ft | 415 kts | 135° |
| 2026-04-16 12:22 | 38.71596 | 19.74522 | 35007 ft | 415 kts | 135° |
| 2026-04-16 12:22 | 38.67504 | 19.79728 | 35004 ft | 414 kts | 135° |
| 2026-04-16 12:23 | 38.63421 | 19.84921 | 34993 ft | 413 kts | 135° |
| 2026-04-16 12:23 | 38.59348 | 19.90099 | 34995 ft | 413 kts | 135° |
| 2026-04-16 12:24 | 38.55276 | 19.95265 | 34988 ft | 412 kts | 135° |
| 2026-04-16 12:24 | 38.51210 | 20.00416 | 34987 ft | 412 kts | 135° |
| 2026-04-16 12:25 | 38.47167 | 20.05531 | 34991 ft | 412 kts | 135° |
| 2026-04-16 12:25 | 38.43084 | 20.10675 | 34973 ft | 413 kts | 136° |
| 2026-04-16 12:26 | 38.38995 | 20.15809 | 34970 ft | 413 kts | 136° |
| 2026-04-16 12:26 | 38.34910 | 20.20946 | 34976 ft | 412 kts | 136° |
| 2026-04-16 12:27 | 38.30832 | 20.26068 | 34969 ft | 411 kts | 136° |
| 2026-04-16 12:27 | 38.26753 | 20.31167 | 34964 ft | 411 kts | 136° |
| 2026-04-16 12:28 | 38.22681 | 20.36257 | 34956 ft | 410 kts | 136° |
| 2026-04-16 12:28 | 38.18607 | 20.41354 | 34956 ft | 411 kts | 136° |
| 2026-04-16 12:29 | 38.14516 | 20.46452 | 34938 ft | 412 kts | 136° |
| 2026-04-16 12:29 | 38.10434 | 20.51508 | 34935 ft | 413 kts | 136° |
| 2026-04-16 12:30 | 38.06191 | 20.56489 | 34942 ft | 413 kts | 137° |
| 2026-04-16 12:30 | 38.01928 | 20.61355 | 34945 ft | 413 kts | 138° |
| 2026-04-16 12:31 | 37.97666 | 20.66229 | 34955 ft | 412 kts | 137° |
| 2026-04-16 12:31 | 37.93449 | 20.71086 | 34943 ft | 412 kts | 137° |
| 2026-04-16 12:32 | 37.89207 | 20.75984 | 34919 ft | 413 kts | 138° |
| 2026-04-16 12:32 | 37.84949 | 20.80883 | 34900 ft | 414 kts | 138° |
| 2026-04-16 12:33 | 37.80683 | 20.85772 | 34905 ft | 414 kts | 138° |
| 2026-04-16 12:33 | 37.76412 | 20.90665 | 34906 ft | 414 kts | 137° |
| 2026-04-16 12:34 | 37.72140 | 20.95556 | 34910 ft | 415 kts | 138° |
| 2026-04-16 12:34 | 37.67862 | 21.00441 | 34914 ft | 415 kts | 138° |
| 2026-04-16 12:35 | 37.63581 | 21.05326 | 34931 ft | 415 kts | 138° |
| 2026-04-16 12:35 | 37.59300 | 21.10201 | 34934 ft | 415 kts | 138° |
| 2026-04-16 12:36 | 37.55016 | 21.15080 | 34932 ft | 415 kts | 139° |
| 2026-04-16 12:36 | 37.50755 | 21.19912 | 34930 ft | 415 kts | 139° |
| 2026-04-16 12:37 | 37.46441 | 21.24797 | 34928 ft | 415 kts | 139° |
| 2026-04-16 12:37 | 37.42154 | 21.29644 | 34926 ft | 415 kts | 139° |
| 2026-04-16 12:38 | 37.37890 | 21.34461 | 34927 ft | 414 kts | 139° |
| 2026-04-16 12:38 | 37.33596 | 21.39296 | 34933 ft | 414 kts | 139° |
| 2026-04-16 12:39 | 37.29307 | 21.44122 | 34933 ft | 414 kts | 139° |
| 2026-04-16 12:39 | 37.25011 | 21.48947 | 34933 ft | 414 kts | 139° |
| 2026-04-16 12:40 | 37.20711 | 21.53769 | 34936 ft | 414 kts | 139° |
| 2026-04-16 12:40 | 37.16410 | 21.58588 | 34935 ft | 415 kts | 139° |
| 2026-04-16 12:41 | 37.12110 | 21.63407 | 34923 ft | 414 kts | 139° |
| 2026-04-16 12:41 | 37.07814 | 21.68210 | 34926 ft | 414 kts | 139° |
| 2026-04-16 12:42 | 37.03510 | 21.73005 | 34920 ft | 414 kts | 139° |
| 2026-04-16 12:42 | 36.99229 | 21.77759 | 34915 ft | 414 kts | 139° |
| 2026-04-16 12:43 | 36.94927 | 21.82538 | 34901 ft | 413 kts | 139° |
| 2026-04-16 12:43 | 36.90635 | 21.87304 | 34908 ft | 413 kts | 139° |
| 2026-04-16 12:44 | 36.86336 | 21.92066 | 34912 ft | 413 kts | 139° |
| 2026-04-16 12:44 | 36.82039 | 21.96823 | 34915 ft | 413 kts | 139° |
| 2026-04-16 12:45 | 36.77742 | 22.01566 | 34924 ft | 412 kts | 139° |
| 2026-04-16 12:45 | 36.73446 | 22.06305 | 34919 ft | 412 kts | 139° |
| 2026-04-16 12:46 | 36.69150 | 22.11037 | 34917 ft | 413 kts | 139° |
| 2026-04-16 12:46 | 36.64843 | 22.15768 | 34900 ft | 413 kts | 139° |
| 2026-04-16 12:47 | 36.60525 | 22.20506 | 34900 ft | 414 kts | 139° |
| 2026-04-16 12:47 | 36.56199 | 22.25253 | 34902 ft | 415 kts | 139° |
| 2026-04-16 12:48 | 36.51859 | 22.29995 | 34900 ft | 415 kts | 139° |
| 2026-04-16 12:48 | 36.47512 | 22.34741 | 34912 ft | 416 kts | 139° |
| 2026-04-16 12:49 | 36.43163 | 22.39476 | 34912 ft | 416 kts | 139° |
| 2026-04-16 12:49 | 36.38837 | 22.44185 | 34913 ft | 416 kts | 139° |
| 2026-04-16 12:50 | 36.34486 | 22.48925 | 34918 ft | 416 kts | 139° |
| 2026-04-16 12:50 | 36.30141 | 22.53641 | 34927 ft | 415 kts | 139° |
| 2026-04-16 12:51 | 36.25803 | 22.58343 | 34924 ft | 414 kts | 139° |
| 2026-04-16 12:51 | 36.21473 | 22.63030 | 34923 ft | 413 kts | 139° |
| 2026-04-16 12:52 | 36.17147 | 22.67708 | 34921 ft | 413 kts | 139° |
| 2026-04-16 12:52 | 36.12817 | 22.72386 | 34918 ft | 412 kts | 140° |
| 2026-04-16 12:53 | 36.08494 | 22.77045 | 34912 ft | 412 kts | 140° |
| 2026-04-16 12:53 | 36.04175 | 22.81691 | 34913 ft | 411 kts | 140° |
| 2026-04-16 12:54 | 35.99868 | 22.86311 | 34928 ft | 410 kts | 140° |
| 2026-04-16 12:54 | 35.95572 | 22.90921 | 34931 ft | 409 kts | 140° |
| 2026-04-16 12:55 | 35.91276 | 22.95516 | 34935 ft | 408 kts | 140° |
| 2026-04-16 12:55 | 35.86991 | 23.00089 | 34934 ft | 407 kts | 140° |
| 2026-04-16 12:56 | 35.82653 | 23.04562 | 34928 ft | 406 kts | 146° |
| 2026-04-16 12:56 | 35.77951 | 23.08307 | 34917 ft | 405 kts | 148° |
| 2026-04-16 12:57 | 35.73183 | 23.12082 | 34919 ft | 405 kts | 148° |
| 2026-04-16 12:57 | 35.68437 | 23.15821 | 34901 ft | 405 kts | 148° |
| 2026-04-16 12:58 | 35.63714 | 23.19516 | 34910 ft | 405 kts | 148° |
| 2026-04-16 12:58 | 35.58962 | 23.23241 | 34904 ft | 405 kts | 147° |
| 2026-04-16 12:59 | 35.54214 | 23.26959 | 34889 ft | 405 kts | 147° |
| 2026-04-16 13:00 | 35.47082 | 23.32540 | 34876 ft | 405 kts | 147° |
| 2026-04-16 13:00 | 35.42322 | 23.36257 | 34877 ft | 405 kts | 147° |
| 2026-04-16 13:01 | 35.37566 | 23.39970 | 34875 ft | 405 kts | 147° |
| 2026-04-16 13:01 | 35.32812 | 23.43672 | 34829 ft | 406 kts | 147° |
| 2026-04-16 13:02 | 35.28060 | 23.47359 | 34832 ft | 408 kts | 147° |
| 2026-04-16 13:02 | 35.23252 | 23.51085 | 34825 ft | 410 kts | 147° |
| 2026-04-16 13:03 | 35.18429 | 23.54822 | 34829 ft | 411 kts | 147° |
| 2026-04-16 13:03 | 35.13595 | 23.58562 | 34822 ft | 412 kts | 147° |
| 2026-04-16 13:04 | 35.08751 | 23.62306 | 34826 ft | 412 kts | 147° |
| 2026-04-16 13:04 | 35.03901 | 23.66051 | 34829 ft | 413 kts | 147° |
| 2026-04-16 13:05 | 34.99040 | 23.69801 | 34812 ft | 414 kts | 147° |
| 2026-04-16 13:05 | 34.94179 | 23.73552 | 34813 ft | 414 kts | 147° |
| 2026-04-16 13:06 | 34.89299 | 23.77304 | 34802 ft | 415 kts | 148° |
| 2026-04-16 13:06 | 34.84408 | 23.81044 | 34808 ft | 415 kts | 148° |
| 2026-04-16 13:07 | 34.79512 | 23.84791 | 34821 ft | 416 kts | 148° |
| 2026-04-16 13:07 | 34.74617 | 23.88545 | 34818 ft | 416 kts | 148° |
| 2026-04-16 13:08 | 34.69717 | 23.92290 | 34816 ft | 416 kts | 148° |
| 2026-04-16 13:08 | 34.64813 | 23.96026 | 34819 ft | 416 kts | 148° |
| 2026-04-16 13:09 | 34.59911 | 23.99768 | 34818 ft | 416 kts | 148° |
| 2026-04-16 13:09 | 34.55007 | 24.03508 | 34818 ft | 416 kts | 148° |
| 2026-04-16 13:10 | 34.50100 | 24.07227 | 34813 ft | 416 kts | 149° |
| 2026-04-16 13:10 | 34.46025 | 24.10315 | 34827 ft | 415 kts | 149° |
| 2026-04-16 13:11 | 34.40306 | 24.14651 | 34831 ft | 414 kts | 149° |
| 2026-04-16 13:11 | 34.35428 | 24.18344 | 34829 ft | 413 kts | 149° |
| 2026-04-16 13:12 | 34.31381 | 24.21399 | 34822 ft | 413 kts | 149° |
| 2026-04-16 13:12 | 34.25725 | 24.25670 | 34819 ft | 412 kts | 149° |
| 2026-04-16 13:13 | 34.20855 | 24.29340 | 34814 ft | 413 kts | 150° |
| 2026-04-16 13:13 | 34.16770 | 24.32414 | 34808 ft | 413 kts | 150° |
| 2026-04-16 13:14 | 34.11896 | 24.36076 | 34797 ft | 413 kts | 150° |
| 2026-04-16 13:14 | 34.07021 | 24.39738 | 34775 ft | 413 kts | 150° |
| 2026-04-16 13:15 | 34.02139 | 24.43394 | 34777 ft | 413 kts | 150° |
| 2026-04-16 13:15 | 33.97567 | 24.47606 | 34775 ft | 416 kts | 141° |
| 2026-04-16 13:16 | 33.93253 | 24.52258 | 34772 ft | 417 kts | 141° |
| 2026-04-16 13:16 | 33.88919 | 24.56918 | 34760 ft | 418 kts | 141° |
| 2026-04-16 13:17 | 33.84603 | 24.61563 | 34762 ft | 419 kts | 141° |
| 2026-04-16 13:17 | 33.80243 | 24.66231 | 34765 ft | 420 kts | 141° |
| 2026-04-16 13:18 | 33.75882 | 24.70899 | 34763 ft | 420 kts | 142° |
| 2026-04-16 13:18 | 33.71515 | 24.75568 | 34765 ft | 420 kts | 141° |
| 2026-04-16 13:19 | 33.67148 | 24.80232 | 34762 ft | 421 kts | 142° |
| 2026-04-16 13:19 | 33.62773 | 24.84901 | 34753 ft | 421 kts | 142° |
| 2026-04-16 13:20 | 33.58395 | 24.89571 | 34759 ft | 421 kts | 142° |
| 2026-04-16 13:20 | 33.54008 | 24.94229 | 34758 ft | 422 kts | 142° |
| 2026-04-16 13:21 | 33.49616 | 24.98895 | 34756 ft | 422 kts | 142° |
| 2026-04-16 13:21 | 33.45218 | 25.03556 | 34731 ft | 422 kts | 142° |
| 2026-04-16 13:22 | 33.40810 | 25.08211 | 34742 ft | 423 kts | 142° |
| 2026-04-16 13:22 | 33.36405 | 25.12876 | 34744 ft | 423 kts | 142° |
| 2026-04-16 13:23 | 33.32032 | 25.17503 | 34747 ft | 423 kts | 143° |
| 2026-04-16 13:23 | 33.27616 | 25.22151 | 34751 ft | 423 kts | 143° |
| 2026-04-16 13:24 | 33.23198 | 25.26803 | 34739 ft | 423 kts | 143° |
| 2026-04-16 13:24 | 33.18776 | 25.31444 | 34743 ft | 423 kts | 143° |
| 2026-04-16 13:25 | 33.14358 | 25.36086 | 34720 ft | 423 kts | 143° |
| 2026-04-16 13:25 | 33.09936 | 25.40733 | 34724 ft | 424 kts | 143° |
| 2026-04-16 13:26 | 33.05512 | 25.45369 | 34723 ft | 424 kts | 143° |
| 2026-04-16 13:26 | 33.01104 | 25.49971 | 34738 ft | 424 kts | 143° |
| 2026-04-16 13:27 | 32.96659 | 25.54612 | 34730 ft | 425 kts | 144° |
| 2026-04-16 13:27 | 32.92209 | 25.59255 | 34727 ft | 425 kts | 144° |
| 2026-04-16 13:28 | 32.87754 | 25.63897 | 34729 ft | 426 kts | 144° |
| 2026-04-16 13:28 | 32.83299 | 25.68529 | 34713 ft | 426 kts | 144° |
| 2026-04-16 13:29 | 32.78839 | 25.73168 | 34716 ft | 426 kts | 144° |
| 2026-04-16 13:29 | 32.74378 | 25.77803 | 34721 ft | 426 kts | 144° |
| 2026-04-16 13:30 | 32.69939 | 25.82405 | 34718 ft | 426 kts | 145° |
| 2026-04-16 13:30 | 32.65471 | 25.87018 | 34720 ft | 427 kts | 146° |
| 2026-04-16 13:31 | 32.60985 | 25.91635 | 34718 ft | 427 kts | 145° |
| 2026-04-16 13:31 | 32.56497 | 25.96261 | 34695 ft | 428 kts | 146° |
| 2026-04-16 13:32 | 32.52009 | 26.00891 | 34707 ft | 428 kts | 146° |
| 2026-04-16 13:32 | 32.47515 | 26.05518 | 34717 ft | 428 kts | 146° |
| 2026-04-16 13:33 | 32.43016 | 26.10138 | 34724 ft | 428 kts | 146° |
| 2026-04-16 13:33 | 32.38516 | 26.14753 | 34717 ft | 428 kts | 147° |
| 2026-04-16 13:34 | 32.34017 | 26.19363 | 34715 ft | 428 kts | 147° |
| 2026-04-16 13:34 | 32.29541 | 26.23951 | 34713 ft | 429 kts | 147° |
| 2026-04-16 13:35 | 32.25024 | 26.28560 | 34684 ft | 429 kts | 148° |
| 2026-04-16 13:35 | 32.20506 | 26.33166 | 34691 ft | 429 kts | 148° |
| 2026-04-16 13:36 | 32.15984 | 26.37766 | 34699 ft | 429 kts | 148° |
| 2026-04-16 13:36 | 32.11463 | 26.42367 | 34706 ft | 429 kts | 148° |
| 2026-04-16 13:37 | 32.06946 | 26.46957 | 34696 ft | 429 kts | 148° |
| 2026-04-16 13:37 | 32.02421 | 26.51548 | 34694 ft | 429 kts | 148° |
| 2026-04-16 13:38 | 31.97884 | 26.56138 | 34693 ft | 430 kts | 148° |
| 2026-04-16 13:38 | 31.93374 | 26.60707 | 34673 ft | 431 kts | 149° |
| 2026-04-16 13:39 | 31.88789 | 26.65334 | 34685 ft | 432 kts | 149° |
| 2026-04-16 13:39 | 31.84235 | 26.69933 | 34694 ft | 432 kts | 149° |
| 2026-04-16 13:40 | 31.79669 | 26.74540 | 34702 ft | 432 kts | 149° |
| 2026-04-16 13:40 | 31.75130 | 26.79111 | 34690 ft | 432 kts | 150° |
| 2026-04-16 13:41 | 31.70555 | 26.83708 | 34688 ft | 433 kts | 150° |
| 2026-04-16 13:41 | 31.65965 | 26.88306 | 34660 ft | 434 kts | 151° |
| 2026-04-16 13:42 | 31.61363 | 26.92920 | 34676 ft | 436 kts | 151° |
| 2026-04-16 13:42 | 31.56746 | 26.97549 | 34682 ft | 437 kts | 151° |
| 2026-04-16 13:43 | 31.52109 | 27.02183 | 34686 ft | 438 kts | 151° |
| 2026-04-16 13:43 | 31.47470 | 27.06815 | 34687 ft | 438 kts | 151° |
| 2026-04-16 13:44 | 31.42831 | 27.11444 | 34679 ft | 439 kts | 151° |
| 2026-04-16 13:44 | 31.38200 | 27.16049 | 34682 ft | 440 kts | 152° |
| 2026-04-16 13:45 | 31.33498 | 27.20652 | 34674 ft | 438 kts | 156° |
| 2026-04-16 13:45 | 31.30951 | 27.22520 | 34751 ft | 427 kts | 165° |
| 2026-04-16 13:45 | 31.28274 | 27.23897 | 34919 ft | 417 kts | 171° |
| 2026-04-16 13:45 | 31.25550 | 27.25087 | 35106 ft | 418 kts | 171° |
| 2026-04-16 13:46 | 31.22825 | 27.26297 | 35302 ft | 419 kts | 171° |
| 2026-04-16 13:46 | 31.20102 | 27.27517 | 35497 ft | 420 kts | 171° |
| 2026-04-16 13:46 | 31.17371 | 27.28748 | 35675 ft | 421 kts | 171° |
| 2026-04-16 13:46 | 31.14635 | 27.29982 | 35841 ft | 422 kts | 171° |
| 2026-04-16 13:47 | 31.11891 | 27.31215 | 35979 ft | 423 kts | 171° |
| 2026-04-16 13:47 | 31.09134 | 27.32447 | 36110 ft | 425 kts | 171° |
| 2026-04-16 13:47 | 31.06365 | 27.33676 | 36237 ft | 426 kts | 171° |
| 2026-04-16 13:47 | 31.03588 | 27.34905 | 36403 ft | 428 kts | 171° |
| 2026-04-16 13:48 | 31.00858 | 27.36410 | 36561 ft | 443 kts | 161° |
| 2026-04-16 13:48 | 30.98290 | 27.38518 | 36679 ft | 458 kts | 153° |
| 2026-04-16 13:48 | 30.95796 | 27.40841 | 36696 ft | 459 kts | 153° |
| 2026-04-16 13:49 | 30.90812 | 27.45501 | 36696 ft | 459 kts | 153° |
| 2026-04-16 13:49 | 30.85821 | 27.50150 | 36690 ft | 461 kts | 153° |
| 2026-04-16 13:50 | 30.80779 | 27.54819 | 36686 ft | 465 kts | 153° |
| 2026-04-16 13:50 | 30.75741 | 27.59484 | 36683 ft | 466 kts | 153° |
| 2026-04-16 13:51 | 30.70660 | 27.64182 | 36684 ft | 467 kts | 153° |
| 2026-04-16 13:51 | 30.65577 | 27.68878 | 36686 ft | 467 kts | 153° |
| 2026-04-16 13:52 | 30.60491 | 27.73573 | 36680 ft | 467 kts | 153° |
| 2026-04-16 13:52 | 30.55405 | 27.78248 | 36674 ft | 467 kts | 153° |
| 2026-04-16 13:53 | 30.50345 | 27.82893 | 36642 ft | 467 kts | 153° |
| 2026-04-16 13:53 | 30.45242 | 27.87571 | 36635 ft | 468 kts | 153° |
| 2026-04-16 13:54 | 30.40128 | 27.92258 | 36643 ft | 469 kts | 153° |
| 2026-04-16 13:54 | 30.35012 | 27.96959 | 36644 ft | 470 kts | 153° |
| 2026-04-16 13:55 | 30.29881 | 28.01648 | 36649 ft | 470 kts | 153° |
| 2026-04-16 13:55 | 30.24745 | 28.06330 | 36650 ft | 470 kts | 153° |
| 2026-04-16 13:56 | 30.19606 | 28.11006 | 36623 ft | 470 kts | 153° |
| 2026-04-16 13:56 | 30.14470 | 28.15698 | 36635 ft | 471 kts | 153° |
| 2026-04-16 13:57 | 30.09322 | 28.20383 | 36645 ft | 471 kts | 153° |
| 2026-04-16 13:57 | 30.04172 | 28.25048 | 36642 ft | 471 kts | 153° |
| 2026-04-16 13:58 | 29.97310 | 28.31266 | 36652 ft | 471 kts | 153° |
| 2026-04-16 13:58 | 29.91284 | 28.36726 | 36642 ft | 471 kts | 153° |
| 2026-04-16 13:59 | 29.86240 | 28.41601 | 36610 ft | 484 kts | 142° |
| 2026-04-16 13:59 | 29.81991 | 28.47770 | 36626 ft | 494 kts | 136° |
| 2026-04-16 14:00 | 29.77844 | 28.54013 | 36633 ft | 494 kts | 137° |
| 2026-04-16 14:00 | 29.73647 | 28.60275 | 36648 ft | 494 kts | 137° |
| 2026-04-16 14:01 | 29.70124 | 28.65514 | 36654 ft | 494 kts | 137° |
| 2026-04-16 14:01 | 29.65244 | 28.72768 | 36648 ft | 494 kts | 136° |
| 2026-04-16 14:02 | 29.61040 | 28.79006 | 36657 ft | 493 kts | 136° |
| 2026-04-16 14:02 | 29.56842 | 28.85240 | 36662 ft | 493 kts | 136° |
| 2026-04-16 14:03 | 29.52642 | 28.91462 | 36662 ft | 493 kts | 136° |
| 2026-04-16 14:03 | 29.48440 | 28.97675 | 36618 ft | 493 kts | 136° |
| 2026-04-16 14:04 | 29.44231 | 29.03886 | 36640 ft | 493 kts | 136° |
| 2026-04-16 14:04 | 29.39578 | 29.09471 | 36650 ft | 475 kts | 152° |
| 2026-04-16 14:05 | 29.34328 | 29.14027 | 36659 ft | 473 kts | 152° |
| 2026-04-16 14:05 | 29.29077 | 29.18574 | 36664 ft | 474 kts | 152° |
| 2026-04-16 14:06 | 29.23854 | 29.23103 | 36667 ft | 474 kts | 152° |
| 2026-04-16 14:06 | 29.18593 | 29.27660 | 36669 ft | 474 kts | 152° |
| 2026-04-16 14:07 | 29.13325 | 29.32215 | 36645 ft | 475 kts | 152° |
| 2026-04-16 14:07 | 29.08024 | 29.36728 | 36655 ft | 475 kts | 153° |
| 2026-04-16 14:08 | 29.02671 | 29.41151 | 36665 ft | 475 kts | 154° |
| 2026-04-16 14:08 | 28.97310 | 29.45563 | 36670 ft | 475 kts | 154° |
| 2026-04-16 14:09 | 28.91953 | 29.50001 | 36680 ft | 476 kts | 153° |
| 2026-04-16 14:09 | 28.86601 | 29.54457 | 36669 ft | 476 kts | 153° |
| 2026-04-16 14:10 | 28.82146 | 29.58158 | 36650 ft | 477 kts | 153° |
| 2026-04-16 14:10 | 28.76776 | 29.62596 | 36664 ft | 478 kts | 153° |
| 2026-04-16 14:11 | 28.70515 | 29.67765 | 36675 ft | 479 kts | 153° |
| 2026-04-16 14:11 | 28.66028 | 29.71467 | 36689 ft | 479 kts | 153° |
| 2026-04-16 14:12 | 28.60627 | 29.75911 | 36699 ft | 479 kts | 153° |
| 2026-04-16 14:12 | 28.55231 | 29.80362 | 36704 ft | 479 kts | 153° |
| 2026-04-16 14:13 | 28.49827 | 29.84811 | 36676 ft | 480 kts | 153° |
| 2026-04-16 14:13 | 28.44401 | 29.89248 | 36684 ft | 481 kts | 153° |
| 2026-04-16 14:14 | 28.38965 | 29.93698 | 36692 ft | 482 kts | 153° |
| 2026-04-16 14:14 | 28.33524 | 29.98158 | 36712 ft | 482 kts | 153° |
| 2026-04-16 14:15 | 28.28112 | 30.02582 | 36715 ft | 483 kts | 153° |
| 2026-04-16 14:15 | 28.22668 | 30.07033 | 36735 ft | 483 kts | 153° |
| 2026-04-16 14:16 | 28.17215 | 30.11487 | 36692 ft | 483 kts | 153° |
| 2026-04-16 14:16 | 28.11747 | 30.15934 | 36704 ft | 484 kts | 153° |
| 2026-04-16 14:17 | 28.06270 | 30.20385 | 36714 ft | 485 kts | 153° |
| 2026-04-16 14:17 | 28.00789 | 30.24844 | 36726 ft | 485 kts | 153° |
| 2026-04-16 14:18 | 27.95303 | 30.29298 | 36735 ft | 485 kts | 153° |
| 2026-04-16 14:18 | 27.89810 | 30.33742 | 36741 ft | 485 kts | 153° |
| 2026-04-16 14:19 | 27.84320 | 30.38187 | 36729 ft | 486 kts | 153° |
| 2026-04-16 14:19 | 27.78819 | 30.42631 | 36718 ft | 486 kts | 153° |
| 2026-04-16 14:20 | 27.73350 | 30.47046 | 36731 ft | 487 kts | 153° |
| 2026-04-16 14:20 | 27.67807 | 30.51511 | 36742 ft | 487 kts | 153° |
| 2026-04-16 14:21 | 27.62296 | 30.55954 | 36757 ft | 487 kts | 153° |
| 2026-04-16 14:21 | 27.56779 | 30.60387 | 36732 ft | 487 kts | 153° |
| 2026-04-16 14:22 | 27.51259 | 30.64817 | 36749 ft | 487 kts | 153° |
| 2026-04-16 14:22 | 27.45772 | 30.69220 | 36760 ft | 487 kts | 153° |
| 2026-04-16 14:23 | 27.40242 | 30.73640 | 36760 ft | 487 kts | 153° |
| 2026-04-16 14:23 | 27.34711 | 30.78058 | 36777 ft | 488 kts | 153° |
| 2026-04-16 14:24 | 27.29182 | 30.82473 | 36779 ft | 488 kts | 153° |
| 2026-04-16 14:24 | 27.23649 | 30.86891 | 36759 ft | 488 kts | 153° |
| 2026-04-16 14:25 | 27.18113 | 30.91302 | 36765 ft | 488 kts | 153° |
| 2026-04-16 14:25 | 27.12573 | 30.95715 | 36793 ft | 488 kts | 153° |
| 2026-04-16 14:26 | 27.07029 | 31.00136 | 36789 ft | 489 kts | 153° |
| 2026-04-16 14:26 | 27.01802 | 31.05109 | 36801 ft | 504 kts | 138° |
| 2026-04-16 14:27 | 26.97354 | 31.11228 | 36801 ft | 506 kts | 135° |
| 2026-04-16 14:27 | 26.92910 | 31.17354 | 36794 ft | 506 kts | 136° |
| 2026-04-16 14:28 | 26.88453 | 31.23467 | 36775 ft | 506 kts | 136° |
| 2026-04-16 14:28 | 26.84026 | 31.29536 | 36752 ft | 506 kts | 135° |
| 2026-04-16 14:29 | 26.79569 | 31.35649 | 36744 ft | 507 kts | 135° |
| 2026-04-16 14:29 | 26.75113 | 31.41762 | 36732 ft | 507 kts | 135° |
| 2026-04-16 14:30 | 26.70653 | 31.47869 | 36736 ft | 507 kts | 136° |
| 2026-04-16 14:30 | 26.66184 | 31.53965 | 36707 ft | 507 kts | 136° |
| 2026-04-16 14:31 | 26.61724 | 31.60053 | 36709 ft | 507 kts | 135° |
| 2026-04-16 14:31 | 26.57260 | 31.66145 | 36695 ft | 506 kts | 135° |
| 2026-04-16 14:32 | 26.52790 | 31.72227 | 36693 ft | 506 kts | 136° |
| 2026-04-16 14:32 | 26.48314 | 31.78301 | 36663 ft | 507 kts | 136° |
| 2026-04-16 14:33 | 26.43830 | 31.84384 | 36651 ft | 508 kts | 136° |
| 2026-04-16 14:33 | 26.39340 | 31.90477 | 36658 ft | 508 kts | 136° |
| 2026-04-16 14:34 | 26.34849 | 31.96571 | 36665 ft | 509 kts | 136° |
| 2026-04-16 14:34 | 26.30349 | 32.02662 | 36675 ft | 509 kts | 136° |
| 2026-04-16 14:35 | 26.25839 | 32.08741 | 36670 ft | 509 kts | 136° |
| 2026-04-16 14:35 | 26.21327 | 32.14806 | 36669 ft | 509 kts | 136° |
| 2026-04-16 14:36 | 26.16812 | 32.20876 | 36684 ft | 509 kts | 136° |
| 2026-04-16 14:36 | 26.12303 | 32.26940 | 36664 ft | 509 kts | 136° |
| 2026-04-16 14:37 | 26.07785 | 32.33017 | 36665 ft | 510 kts | 136° |
| 2026-04-16 14:37 | 26.03243 | 32.39102 | 36657 ft | 512 kts | 136° |
| 2026-04-16 14:38 | 25.98687 | 32.45203 | 36666 ft | 513 kts | 136° |
| 2026-04-16 14:38 | 25.94117 | 32.51309 | 36677 ft | 514 kts | 136° |
| 2026-04-16 14:39 | 25.89581 | 32.57369 | 36685 ft | 514 kts | 136° |
| 2026-04-16 14:39 | 25.84999 | 32.63482 | 36685 ft | 515 kts | 137° |
| 2026-04-16 14:40 | 25.80417 | 32.69582 | 36692 ft | 515 kts | 137° |
| 2026-04-16 14:40 | 25.76578 | 32.74688 | 36693 ft | 515 kts | 137° |
| 2026-04-16 14:41 | 25.71714 | 32.82269 | 36666 ft | 521 kts | 129° |
| 2026-04-16 14:41 | 25.67716 | 32.88987 | 36653 ft | 523 kts | 130° |
| 2026-04-16 14:42 | 25.63705 | 32.95712 | 36663 ft | 524 kts | 130° |
| 2026-04-16 14:42 | 25.59669 | 33.02456 | 36670 ft | 525 kts | 130° |
| 2026-04-16 14:43 | 25.55654 | 33.09164 | 36681 ft | 526 kts | 130° |
| 2026-04-16 14:43 | 25.51603 | 33.15917 | 36201 ft | 529 kts | 130° |
| 2026-04-16 14:44 | 25.49531 | 33.19363 | 34849 ft | 533 kts | 129° |
| 2026-04-16 14:44 | 25.47504 | 33.22734 | 33672 ft | 532 kts | 128° |
| 2026-04-16 14:44 | 25.45463 | 33.26133 | 32396 ft | 528 kts | 128° |
| 2026-04-16 14:44 | 25.43434 | 33.29508 | 31050 ft | 525 kts | 127° |
| 2026-04-16 14:45 | 25.41412 | 33.32865 | 29639 ft | 523 kts | 127° |
| 2026-04-16 14:45 | 25.39396 | 33.36208 | 27991 ft | 522 kts | 127° |
| 2026-04-16 14:45 | 25.37399 | 33.39519 | 26766 ft | 512 kts | 127° |
| 2026-04-16 14:45 | 25.35463 | 33.42772 | 25691 ft | 503 kts | 124° |
| 2026-04-16 14:46 | 25.33984 | 33.46243 | 25273 ft | 495 kts | 111° |
| 2026-04-16 14:46 | 25.33156 | 33.49880 | 24963 ft | 485 kts | 100° |
| 2026-04-16 14:46 | 25.32952 | 33.53568 | 24191 ft | 477 kts | 87° |
| 2026-04-16 14:46 | 25.33471 | 33.57141 | 23516 ft | 462 kts | 73° |
| 2026-04-16 14:47 | 25.34359 | 33.60482 | 23006 ft | 444 kts | 73° |
| 2026-04-16 14:47 | 25.35191 | 33.63686 | 22565 ft | 426 kts | 73° |
| 2026-04-16 14:47 | 25.35975 | 33.66792 | 22046 ft | 413 kts | 73° |
| 2026-04-16 14:47 | 25.36724 | 33.69805 | 21534 ft | 401 kts | 74° |
| 2026-04-16 14:48 | 25.37448 | 33.72735 | 21024 ft | 390 kts | 74° |
| 2026-04-16 14:48 | 25.38156 | 33.75589 | 20552 ft | 380 kts | 74° |
| 2026-04-16 14:48 | 25.38852 | 33.78373 | 20060 ft | 371 kts | 73° |
| 2026-04-16 14:48 | 25.39537 | 33.81094 | 19607 ft | 363 kts | 73° |
| 2026-04-16 14:49 | 25.40208 | 33.83748 | 19218 ft | 354 kts | 73° |
| 2026-04-16 14:49 | 25.40862 | 33.86342 | 18835 ft | 347 kts | 74° |
| 2026-04-16 14:49 | 25.41510 | 33.88924 | 18440 ft | 349 kts | 74° |
| 2026-04-16 14:49 | 25.42161 | 33.91522 | 18059 ft | 351 kts | 74° |
| 2026-04-16 14:50 | 25.42814 | 33.94131 | 17625 ft | 352 kts | 74° |
| 2026-04-16 14:50 | 25.43464 | 33.96726 | 17190 ft | 350 kts | 74° |
| 2026-04-16 14:50 | 25.44109 | 33.99311 | 16764 ft | 347 kts | 74° |
| 2026-04-16 14:50 | 25.44749 | 34.01881 | 16344 ft | 345 kts | 74° |
| 2026-04-16 14:51 | 25.45384 | 34.04439 | 15922 ft | 344 kts | 74° |
| 2026-04-16 14:51 | 25.46018 | 34.06986 | 15512 ft | 342 kts | 73° |
| 2026-04-16 14:51 | 25.46850 | 34.09435 | 15103 ft | 339 kts | 62° |
| 2026-04-16 14:51 | 25.48069 | 34.11644 | 14708 ft | 335 kts | 51° |
| 2026-04-16 14:53 | 25.60361 | 34.21583 | 12745 ft | 286 kts | 31° |
| 2026-04-16 14:53 | 25.61974 | 34.22760 | 12749 ft | 270 kts | 30° |
| 2026-04-16 14:54 | 25.63553 | 34.23908 | 12223 ft | 279 kts | 31° |
| 2026-04-16 14:54 | 25.65227 | 34.25119 | 11479 ft | 296 kts | 31° |
| 2026-04-16 14:54 | 25.66995 | 34.26400 | 10712 ft | 309 kts | 31° |
| 2026-04-16 14:54 | 25.68778 | 34.27696 | 10322 ft | 299 kts | 31° |
| 2026-04-16 14:55 | 25.70493 | 34.28947 | 9867 ft | 293 kts | 31° |
| 2026-04-16 14:55 | 25.72186 | 34.30181 | 9303 ft | 290 kts | 31° |
| 2026-04-16 14:55 | 25.73865 | 34.31409 | 8698 ft | 288 kts | 31° |
| 2026-04-16 14:55 | 25.75534 | 34.32626 | 8110 ft | 285 kts | 31° |
| 2026-04-16 14:56 | 25.77180 | 34.33825 | 7590 ft | 281 kts | 31° |
| 2026-04-16 14:56 | 25.78774 | 34.34989 | 7105 ft | 275 kts | 32° |
| 2026-04-16 14:56 | 25.80359 | 34.36140 | 6659 ft | 270 kts | 31° |
| 2026-04-16 14:56 | 25.81792 | 34.37443 | 6180 ft | 266 kts | 50° |
| 2026-04-16 14:57 | 25.82655 | 34.39222 | 5697 ft | 261 kts | 75° |
| 2026-04-16 14:57 | 25.82794 | 34.41199 | 5226 ft | 256 kts | 99° |
| 2026-04-16 14:57 | 25.82223 | 34.43029 | 4858 ft | 250 kts | 122° |
| 2026-04-16 14:57 | 25.81078 | 34.44444 | 4528 ft | 246 kts | 144° |
| 2026-04-16 14:58 | 25.79573 | 34.45255 | 4279 ft | 238 kts | 163° |
| 2026-04-16 14:58 | 25.76487 | 34.46305 | 3803 ft | 226 kts | 161° |
| 2026-04-16 14:58 | 25.75022 | 34.46805 | 3629 ft | 215 kts | 160° |
| 2026-04-16 14:59 | 25.73607 | 34.47290 | 3455 ft | 211 kts | 160° |
| 2026-04-16 14:59 | 25.72223 | 34.47779 | 3292 ft | 209 kts | 155° |
| 2026-04-16 14:59 | 25.70942 | 34.48556 | 3130 ft | 211 kts | 147° |
| 2026-04-16 14:59 | 25.69675 | 34.49380 | 3042 ft | 211 kts | 148° |
| 2026-04-16 15:00 | 25.68407 | 34.50196 | 3001 ft | 211 kts | 148° |
| 2026-04-16 15:00 | 25.67140 | 34.51010 | 2915 ft | 208 kts | 148° |
| 2026-04-16 15:00 | 25.66331 | 34.51529 | 2851 ft | 197 kts | 148° |
| 2026-04-16 15:00 | 25.64803 | 34.52486 | 2469 ft | 181 kts | 148° |
| 2026-04-16 15:01 | 25.63767 | 34.53129 | 2250 ft | 163 kts | 147° |
| 2026-04-16 15:01 | 25.62854 | 34.53765 | 1961 ft | 153 kts | 144° |
| 2026-04-16 15:01 | 25.61961 | 34.54387 | 1617 ft | 150 kts | 147° |
| 2026-04-16 15:01 | 25.61359 | 34.54773 | 1442 ft | 145 kts | 149° |
| 2026-04-16 15:02 | 25.60221 | 34.55430 | 1135 ft | 135 kts | 151° |
| 2026-04-16 15:02 | 25.59431 | 34.55946 | 916 ft | 129 kts | 144° |
| 2026-04-16 15:02 | 25.58688 | 34.56497 | 638 ft | 130 kts | 147° |
| 2026-04-16 15:02 | 25.57886 | 34.56985 | 519 ft | 133 kts | 148° |
| 2026-04-16 15:03 | 25.57071 | 34.57510 | 336 ft | 136 kts | 148° |
| 2026-04-16 15:03 | 25.56300 | 34.58009 | 257 ft | 111 kts | 149° |
| 2026-04-16 15:03 | 25.55924 | 34.58243 | 263 ft | 77 kts | 148° |
| 2026-04-16 15:03 | 25.55571 | 34.58469 | 259 ft | 12 kts | 150° |
| 2026-04-16 15:04 | 25.55489 | 34.58522 | 256 ft | 15 kts | 145° |
| 2026-04-16 15:04 | 25.55490 | 34.58591 | 257 ft | 8 kts | 43° |
| 2026-04-16 15:04 | 25.55523 | 34.58640 | 256 ft | 8 kts | 63° |
| 2026-04-16 15:04 | 25.55555 | 34.58708 | 254 ft | 12 kts | 61° |
| 2026-04-16 15:05 | 25.55586 | 34.58765 | 250 ft | 15 kts | 59° |
| 2026-04-16 15:05 | 25.55632 | 34.58852 | 242 ft | 10 kts | 65° |
| 2026-04-16 15:05 | 25.55599 | 34.58913 | 242 ft | 11 kts | 154° |
| 2026-04-16 15:05 | 25.55548 | 34.58943 | 242 ft | 7 kts | 149° |
| 2026-04-16 15:06 | 25.55509 | 34.58969 | 242 ft | 7 kts | 149° |
| 2026-04-16 15:06 | 25.55475 | 34.59001 | 242 ft | 6 kts | 113° |
| 2026-04-16 15:06 | 25.55493 | 34.59032 | 242 ft | 4 kts | 44° |
| 2026-04-16 15:06 | 25.55507 | 34.59055 | 242 ft | 3 kts | 60° |
| 2026-04-16 15:07 | 25.55511 | 34.59062 | 242 ft | 0 kts | 60° |